Time;durP1;ratioP1;P1;durP2;ratioP2;P2;SDS_P1;SDS_P2;PMS_P1;PMS_P2;Temp;Humidity;BMP_temperature;BMP_pressure;BME280_temperature;BME280_humidity;BME280_pressure;Samples;Min_cycle;Max_cycle;Signal;HPM_P1;HPM_P2
2022/07/20 00:00:09;;;;;;;;;27.75;24.75;;;;;29.18;42.34;100958.97;4945040;28;45054;-61
2022/07/20 00:02:34;;;;;;;;;28.50;27.00;;;;;29.21;41.80;100962.47;4935981;28;45009;-63
2022/07/20 00:05:00;;;;;;;;;27.50;19.75;;;;;29.21;43.35;100967.09;4932996;28;45595;-63
2022/07/20 00:07:25;;;;;;;;;23.25;22.25;;;;;29.12;44.56;100984.91;4930940;28;45181;-63
2022/07/20 00:12:35;;;;;;;;;23.50;21.25;;;;;28.89;44.77;100977.75;4935340;28;45194;-62
2022/07/20 00:15:01;;;;;;;;;27.75;23.00;;;;;28.78;43.90;100958.97;4934782;28;46535;-62
2022/07/20 00:17:26;;;;;;;;;24.75;20.75;;;;;28.97;44.76;100974.63;4945509;28;45138;-62
2022/07/20 00:19:51;;;;;;;;;30.00;26.75;;;;;29.02;45.24;100980.78;4938611;28;44944;-61
2022/07/20 00:22:17;;;;;;;;;29.75;28.50;;;;;29.03;45.08;101030.22;4933660;28;45557;-63
2022/07/20 00:24:42;;;;;;;;;26.00;24.25;;;;;29.01;44.26;101054.19;4934671;28;45607;-63
2022/07/20 00:27:08;;;;;;;;;21.50;20.75;;;;;28.95;43.55;101092.97;4934115;28;45581;-61
2022/07/20 00:29:33;;;;;;;;;23.75;21.75;;;;;28.87;43.61;101117.16;4932841;28;45410;-62
2022/07/20 00:31:58;;;;;;;;;23.50;20.25;;;;;28.83;44.16;101137.53;4934897;28;44997;-63
2022/07/20 00:34:24;;;;;;;;;27.50;25.50;;;;;28.79;44.13;101138.59;4933226;28;45240;-62
2022/07/20 00:36:49;;;;;;;;;25.25;24.25;;;;;28.75;44.55;101145.22;4932104;28;44966;-64
2022/07/20 00:39:14;;;;;;;;;25.00;23.00;;;;;28.66;44.71;101127.28;4922812;28;45319;-64
2022/07/20 00:41:39;;;;;;;;;22.50;22.50;;;;;28.60;45.17;101119.28;4936825;28;45165;-63
2022/07/20 00:44:07;;;;;;;;;24.00;20.75;;;;;28.53;45.95;101090.22;4931390;28;46442;-62
2022/07/20 00:46:36;;;;;;;;;25.25;22.50;;;;;28.40;46.58;101055.03;4932312;28;45041;-63
2022/07/20 00:49:01;;;;;;;;;22.00;19.50;;;;;28.36;47.42;101045.09;4947858;28;45184;-63
2022/07/20 00:51:27;;;;;;;;;21.50;19.75;;;;;28.40;47.41;101045.91;4934857;28;45205;-62
2022/07/20 00:53:53;;;;;;;;;24.75;23.75;;;;;28.43;47.92;101038.41;4932051;28;45609;-65
2022/07/20 00:56:19;;;;;;;;;26.00;23.25;;;;;28.41;47.89;101026.59;4931774;28;45024;-62
2022/07/20 00:58:45;;;;;;;;;26.25;22.50;;;;;28.24;48.04;100997.09;4932250;28;45184;-63
2022/07/20 01:01:12;;;;;;;;;27.25;22.00;;;;;28.43;48.65;101012.78;4931336;28;45164;-62
2022/07/20 01:03:38;;;;;;;;;22.50;21.75;;;;;28.42;48.84;101016.50;4932359;28;45521;-62
2022/07/20 01:06:04;;;;;;;;;27.75;24.00;;;;;28.37;49.89;100991.94;4932729;28;45430;-63
2022/07/20 01:08:30;;;;;;;;;25.25;24.00;;;;;28.40;49.65;100991.81;4931831;28;44854;-61
2022/07/20 01:10:57;;;;;;;;;32.00;27.50;;;;;28.37;50.33;100972.72;4933074;28;45609;-63
2022/07/20 01:13:22;;;;;;;;;31.00;25.25;;;;;28.32;50.35;100963.78;4933165;28;45297;-63
2022/07/20 01:15:47;;;;;;;;;29.50;27.75;;;;;28.22;50.64;100966.03;4933857;28;45014;-63
2022/07/20 01:18:13;;;;;;;;;32.50;28.25;;;;;28.35;51.40;100982.88;4947754;28;45040;-61
2022/07/20 01:20:47;;;;;;;;;41.75;32.50;;;;;28.36;51.44;100976.41;4934859;28;45044;-63
2022/07/20 01:23:17;;;;;;;;;42.50;34.75;;;;;28.22;52.30;100963.28;4933878;28;45642;-62
2022/07/20 01:25:43;;;;;;;;;40.25;34.25;;;;;28.28;52.26;100962.16;4934228;28;45033;-62
2022/07/20 01:28:11;;;;;;;;;44.25;35.25;;;;;28.34;52.94;100977.47;4934187;28;44987;-62
2022/07/20 01:30:37;;;;;;;;;40.75;36.00;;;;;28.29;53.40;100970.28;4934714;28;44922;-63
2022/07/20 01:33:04;;;;;;;;;42.50;35.75;;;;;28.25;53.10;100967.78;4933840;28;46145;-62
2022/07/20 01:35:30;;;;;;;;;47.25;38.50;;;;;28.09;52.76;100938.22;4932794;28;45092;-64
2022/07/20 01:37:55;;;;;;;;;47.50;37.25;;;;;28.13;53.35;100945.38;4932992;28;45144;-62
2022/07/20 01:40:21;;;;;;;;;49.75;39.25;;;;;28.12;53.54;100957.31;4915223;28;45299;-64
2022/07/20 01:42:46;;;;;;;;;48.00;40.75;;;;;28.16;52.79;100968.16;4931412;28;45072;-62
2022/07/20 01:45:12;;;;;;;;;51.75;42.25;;;;;28.03;53.02;100940.31;4931459;28;45080;-64
2022/07/20 01:47:38;;;;;;;;;54.25;42.75;;;;;28.05;53.08;100961.28;4931264;28;45071;-64
2022/07/20 01:50:04;;;;;;;;;55.25;43.00;;;;;28.06;53.17;100981.41;4934734;28;45103;-64
2022/07/20 01:52:29;;;;;;;;;52.50;42.50;;;;;27.97;52.19;100999.19;4917220;28;45564;-63
2022/07/20 01:54:55;;;;;;;;;55.00;41.75;;;;;27.62;52.81;100949.34;4933692;28;52929;-62
2022/07/20 01:57:20;;;;;;;;;57.75;43.50;;;;;27.96;52.94;101013.84;4934304;28;45099;-63
2022/07/20 01:59:45;;;;;;;;;51.75;41.00;;;;;27.94;52.70;100997.44;4934384;28;45068;-64
2022/07/20 02:02:11;;;;;;;;;50.75;42.25;;;;;27.89;52.71;101004.06;4933015;28;50165;-62
2022/07/20 02:04:37;;;;;;;;;55.75;42.25;;;;;27.87;52.63;101020.59;4933544;28;45007;-64
2022/07/20 02:07:02;;;;;;;;;52.75;42.00;;;;;27.84;52.93;101053.69;4940445;28;45175;-62
2022/07/20 02:09:28;;;;;;;;;51.25;42.00;;;;;27.88;53.46;101102.03;4932631;28;45216;-61
2022/07/20 02:11:53;;;;;;;;;48.00;35.75;;;;;27.87;53.44;101122.22;4933701;28;45054;-63
2022/07/20 02:14:19;;;;;;;;;55.00;45.25;;;;;27.81;53.23;101096.84;4933521;28;45116;-64
2022/07/20 02:16:44;;;;;;;;;57.00;42.50;;;;;27.72;52.79;101060.56;4938456;28;45069;-62
2022/07/20 02:19:09;;;;;;;;;53.25;43.50;;;;;27.69;52.85;101063.44;4942586;28;45090;-62
2022/07/20 02:21:35;;;;;;;;;54.50;43.50;;;;;27.71;52.78;101069.75;4933690;28;45703;-63
2022/07/20 02:24:00;;;;;;;;;54.75;44.75;;;;;27.72;53.18;101055.06;4931337;28;44939;-62
2022/07/20 02:26:26;;;;;;;;;56.00;43.00;;;;;27.25;52.90;100963.63;4932994;28;45064;-62
2022/07/20 02:28:52;;;;;;;;;55.75;43.50;;;;;27.73;53.75;101067.81;4931688;28;44957;-63
2022/07/20 02:31:21;;;;;;;;;55.00;41.25;;;;;27.78;53.21;101092.34;4930707;28;45297;-62
2022/07/20 02:33:47;;;;;;;;;48.00;40.75;;;;;27.78;52.97;101095.09;4931702;28;44943;-63
2022/07/20 02:36:13;;;;;;;;;53.75;42.50;;;;;27.75;52.74;101103.44;4933794;28;45552;-62
2022/07/20 02:38:41;;;;;;;;;50.75;41.00;;;;;27.59;52.87;101094.94;4933617;28;45498;-62
2022/07/20 02:41:07;;;;;;;;;57.25;46.25;;;;;27.32;52.86;101061.22;4934480;28;45026;-62
2022/07/20 02:43:32;;;;;;;;;56.50;43.25;;;;;27.53;52.79;101111.66;4934265;28;45208;-63
2022/07/20 02:45:57;;;;;;;;;51.00;41.50;;;;;27.46;52.85;101111.00;4948365;28;45097;-63
2022/07/20 02:48:23;;;;;;;;;58.75;48.75;;;;;27.33;53.78;101088.59;4936398;28;44941;-63
2022/07/20 02:50:48;;;;;;;;;52.75;41.00;;;;;27.38;52.95;101116.75;4935407;28;45798;-62
2022/07/20 02:53:14;;;;;;;;;56.50;45.50;;;;;27.29;53.29;101118.91;4933328;28;44905;-62
2022/07/20 02:55:41;;;;;;;;;50.25;41.50;;;;;27.20;53.58;101123.78;4932684;28;45361;-64
2022/07/20 02:58:07;;;;;;;;;60.50;46.75;;;;;27.16;53.49;101127.63;4934432;28;45095;-63
2022/07/20 03:00:33;;;;;;;;;53.25;43.25;;;;;27.00;53.17;101124.53;4934205;28;45766;-63
2022/07/20 03:02:59;;;;;;;;;54.50;43.50;;;;;27.07;53.43;101168.19;4934624;28;45088;-62
2022/07/20 03:05:24;;;;;;;;;55.25;45.75;;;;;26.92;53.35;101173.28;4934384;28;45139;-63
2022/07/20 03:07:49;;;;;;;;;57.25;45.00;;;;;26.96;53.99;101199.66;4933510;28;44968;-63
2022/07/20 03:10:15;;;;;;;;;54.25;45.50;;;;;26.96;54.07;101215.19;4938633;28;51154;-62
2022/07/20 03:12:40;;;;;;;;;55.00;44.50;;;;;27.01;53.84;101225.06;4936635;28;45087;-63
2022/07/20 03:15:06;;;;;;;;;63.25;47.25;;;;;26.92;53.58;101197.06;4934706;28;45217;-64
2022/07/20 03:17:32;;;;;;;;;63.00;46.50;;;;;26.94;53.51;101208.88;4945186;28;45040;-63
2022/07/20 03:19:57;;;;;;;;;59.25;45.50;;;;;26.90;53.84;101221.78;4936700;28;45836;-61
2022/07/20 03:22:23;;;;;;;;;52.75;42.50;;;;;26.86;54.03;101233.81;4934818;28;45196;-63
2022/07/20 03:24:48;;;;;;;;;54.50;45.00;;;;;26.82;54.13;101207.44;4934531;28;45562;-63
2022/07/20 03:27:14;;;;;;;;;58.00;46.50;;;;;26.80;54.67;101204.75;4933212;28;45139;-62
2022/07/20 03:29:39;;;;;;;;;60.00;45.75;;;;;26.72;54.58;101193.16;4932766;28;45714;-63
2022/07/20 03:32:05;;;;;;;;;55.50;45.00;;;;;26.80;54.60;101209.34;4932852;28;45142;-62
2022/07/20 03:34:30;;;;;;;;;59.25;46.75;;;;;26.81;54.79;101198.34;4933910;28;45004;-63
2022/07/20 03:36:55;;;;;;;;;57.75;46.00;;;;;26.87;54.60;101199.97;4932456;28;45392;-63
2022/07/20 03:39:21;;;;;;;;;57.00;44.50;;;;;26.74;55.08;101191.25;4932359;28;50731;-64
2022/07/20 03:41:46;;;;;;;;;55.50;44.75;;;;;26.81;54.91;101203.81;4932346;28;45255;-63
2022/07/20 03:44:12;;;;;;;;;58.25;46.50;;;;;26.90;55.02;101207.19;4922354;28;45468;-63
2022/07/20 03:46:37;;;;;;;;;56.50;44.50;;;;;26.88;55.14;101210.00;4952530;28;44951;-63
2022/07/20 03:49:02;;;;;;;;;55.25;45.50;;;;;26.77;56.00;101212.19;4949890;28;45074;-65
2022/07/20 03:51:28;;;;;;;;;59.75;47.25;;;;;26.73;56.85;101219.63;4935726;28;45123;-63
2022/07/20 03:53:53;;;;;;;;;56.50;44.50;;;;;26.69;56.89;101233.47;4935864;28;45166;-65
2022/07/20 03:56:18;;;;;;;;;59.25;44.75;;;;;26.61;58.08;101231.88;4935040;28;45052;-62
2022/07/20 03:58:44;;;;;;;;;54.50;46.00;;;;;26.63;58.24;101237.31;4935768;28;45548;-63
2022/07/20 04:01:09;;;;;;;;;55.75;43.00;;;;;26.77;57.63;101275.25;4935054;28;45016;-63
2022/07/20 04:03:35;;;;;;;;;57.25;44.50;;;;;26.73;57.63;101295.47;4943002;28;45164;-62
2022/07/20 04:06:01;;;;;;;;;54.75;43.25;;;;;26.65;58.66;101303.94;4935782;28;45099;-63
2022/07/20 04:08:26;;;;;;;;;56.75;46.25;;;;;26.53;57.98;101294.25;4932557;28;45051;-65
2022/07/20 04:10:51;;;;;;;;;53.25;43.25;;;;;26.55;58.45;101295.09;4916264;28;45374;-64
2022/07/20 04:13:17;;;;;;;;;50.75;41.25;;;;;26.54;58.30;101262.25;4933427;28;45193;-64
2022/07/20 04:15:45;;;;;;;;;50.25;40.75;;;;;26.44;58.70;101242.47;4933035;28;44987;-64
2022/07/20 04:18:10;;;;;;;;;56.50;42.75;;;;;26.47;58.77;101251.47;4944312;28;45820;-63
2022/07/20 04:20:36;;;;;;;;;49.00;38.25;;;;;26.40;57.22;101246.22;4932761;28;50028;-63
2022/07/20 04:23:01;;;;;;;;;28.50;26.75;;;;;26.33;54.38;101241.91;4931607;28;44964;-65
2022/07/20 04:25:26;;;;;;;;;33.25;30.25;;;;;26.24;54.63;101230.28;4930873;28;45338;-63
2022/07/20 04:27:52;;;;;;;;;32.25;29.00;;;;;26.23;54.42;101211.16;4932053;28;45066;-64
2022/07/20 04:30:17;;;;;;;;;37.75;32.75;;;;;26.24;53.98;101200.16;4932063;28;45332;-63
2022/07/20 04:32:43;;;;;;;;;30.25;29.25;;;;;26.21;53.21;101183.81;4932878;28;45262;-64
2022/07/20 04:35:09;;;;;;;;;15.00;13.25;;;;;26.20;50.69;101203.97;4936329;28;46557;-63
2022/07/20 04:37:35;;;;;;;;;25.50;24.00;;;;;26.08;50.91;101190.63;4945207;28;45303;-63
2022/07/20 04:40:01;;;;;;;;;28.25;20.50;;;;;25.91;51.33;101164.63;4934230;28;45178;-63
2022/07/20 04:42:26;;;;;;;;;29.50;26.00;;;;;26.05;52.12;101182.50;4934464;28;45184;-63
2022/07/20 04:44:51;;;;;;;;;28.25;26.50;;;;;26.08;51.09;101185.16;4937290;28;45339;-64
2022/07/20 04:47:17;;;;;;;;;22.75;21.00;;;;;26.08;49.83;101158.66;4934343;28;45790;-64
2022/07/20 04:49:42;;;;;;;;;22.75;21.00;;;;;26.13;51.52;101141.19;4933865;28;47370;-64
2022/07/20 04:52:07;;;;;;;;;23.00;21.25;;;;;26.10;51.15;101131.22;4932706;28;44916;-64
2022/07/20 04:54:33;;;;;;;;;21.00;21.00;;;;;26.10;50.42;101167.75;4933756;28;44902;-64
2022/07/20 04:56:59;;;;;;;;;28.25;23.25;;;;;25.99;50.50;101182.72;4931139;28;45612;-65
2022/07/20 04:59:24;;;;;;;;;27.50;27.50;;;;;25.92;50.90;101169.19;4932086;28;45462;-63
2022/07/20 05:01:49;;;;;;;;;23.50;20.50;;;;;25.93;50.89;101205.66;4945184;28;44884;-63
2022/07/20 05:04:15;;;;;;;;;24.75;23.00;;;;;25.97;50.96;101240.25;4936935;28;44865;-65
2022/07/20 05:06:40;;;;;;;;;25.25;22.25;;;;;25.98;50.93;101263.06;4934356;28;45541;-65
2022/07/20 05:09:07;;;;;;;;;32.00;24.25;;;;;26.00;50.75;101264.78;4934340;28;46148;-63
2022/07/20 05:11:33;;;;;;;;;23.25;20.25;;;;;25.95;51.14;101272.22;4934189;28;45113;-65
2022/07/20 05:13:58;;;;;;;;;25.25;24.00;;;;;25.81;52.10;101267.16;4934155;28;45176;-63
2022/07/20 05:16:24;;;;;;;;;24.00;24.00;;;;;25.80;52.03;101239.81;4938662;28;46293;-62
2022/07/20 05:18:49;;;;;;;;;23.25;20.25;;;;;25.84;52.36;101222.38;4943627;28;45335;-64
2022/07/20 05:21:14;;;;;;;;;28.00;25.50;;;;;25.86;52.72;101236.91;4931788;28;44978;-62
2022/07/20 05:23:40;;;;;;;;;27.00;23.75;;;;;25.84;53.20;101257.97;4930206;28;45325;-63
2022/07/20 05:26:05;;;;;;;;;26.50;25.50;;;;;25.81;52.96;101233.41;4931031;28;45905;-63
2022/07/20 05:28:31;;;;;;;;;27.25;23.50;;;;;25.79;51.62;101175.97;4931413;28;45483;-62
2022/07/20 05:30:56;;;;;;;;;26.00;22.75;;;;;25.64;52.06;101139.03;4931633;28;45297;-64
2022/07/20 05:33:22;;;;;;;;;41.75;33.75;;;;;25.79;52.19;101148.59;4931438;28;45225;-63
2022/07/20 05:35:49;;;;;;;;;24.25;23.00;;;;;25.71;53.11;101093.19;4935452;28;45234;-63
2022/07/20 05:38:15;;;;;;;;;28.75;25.75;;;;;25.87;54.59;101112.75;4939371;28;44954;-64
2022/07/20 05:40:40;;;;;;;;;24.50;22.75;;;;;25.73;53.66;101154.25;4933968;28;45043;-63
2022/07/20 05:43:06;;;;;;;;;30.50;25.75;;;;;25.81;53.78;101174.06;4934234;28;45417;-63
2022/07/20 05:45:31;;;;;;;;;25.00;19.25;;;;;25.67;52.06;101168.13;4933448;28;46018;-61
2022/07/20 05:47:56;;;;;;;;;24.00;19.25;;;;;25.71;50.78;101194.47;4933754;28;45094;-63
2022/07/20 05:50:22;;;;;;;;;18.00;18.00;;;;;25.61;51.39;101199.31;4932165;28;45642;-61
2022/07/20 05:52:47;;;;;;;;;19.25;18.75;;;;;25.58;51.88;101193.03;4933537;28;45234;-63
2022/07/20 05:55:12;;;;;;;;;19.50;16.25;;;;;25.63;51.93;101202.00;4931591;28;45556;-62
2022/07/20 05:57:38;;;;;;;;;30.75;29.50;;;;;25.43;51.39;101194.38;4931145;28;45337;-61
2022/07/20 06:00:04;;;;;;;;;22.75;19.75;;;;;25.57;51.08;101219.47;4931112;28;45371;-61
2022/07/20 06:02:29;;;;;;;;;37.75;32.50;;;;;25.56;52.02;101226.78;4930150;28;45433;-63
2022/07/20 06:04:54;;;;;;;;;27.75;26.75;;;;;25.60;51.10;101235.81;4930411;28;45601;-63
2022/07/20 06:07:20;;;;;;;;;24.75;23.75;;;;;25.65;51.06;101228.38;4930498;28;50367;-63
2022/07/20 06:09:45;;;;;;;;;19.75;19.25;;;;;25.71;49.29;101216.34;4931114;28;45822;-63
2022/07/20 06:12:10;;;;;;;;;24.25;22.25;;;;;25.72;49.54;101198.97;4936100;28;46035;-63
2022/07/20 06:14:36;;;;;;;;;21.00;20.00;;;;;25.72;49.26;101197.16;4937841;28;45154;-62
2022/07/20 06:17:01;;;;;;;;;18.75;17.00;;;;;25.65;49.27;101211.06;4943978;28;45276;-62
2022/07/20 06:19:26;;;;;;;;;19.50;19.50;;;;;25.63;50.00;101211.09;4943348;28;44889;-63
2022/07/20 06:21:53;;;;;;;;;19.50;17.50;;;;;25.59;49.76;101223.09;4937568;28;45216;-63
2022/07/20 06:24:19;;;;;;;;;22.50;21.25;;;;;25.64;50.09;101239.34;4935988;28;46185;-62
2022/07/20 06:26:45;;;;;;;;;21.25;19.25;;;;;25.63;49.48;101254.00;4936145;28;44965;-62
2022/07/20 06:29:10;;;;;;;;;22.33;20.00;;;;;25.56;49.86;101269.69;4927812;28;45176;-62
2022/07/20 06:31:36;;;;;;;;;26.25;22.00;;;;;25.53;50.43;101289.81;4939226;28;45085;-63
2022/07/20 06:34:02;;;;;;;;;27.50;21.75;;;;;25.45;51.06;101296.44;4930192;28;46582;-63
2022/07/20 06:36:28;;;;;;;;;23.25;18.75;;;;;25.50;51.53;101330.03;4932061;28;45505;-62
2022/07/20 06:38:54;;;;;;;;;23.75;20.00;;;;;25.54;50.24;101318.06;4944990;28;45563;-64
2022/07/20 06:41:19;;;;;;;;;19.25;17.25;;;;;25.01;51.23;101240.09;4916973;28;45589;-64
2022/07/20 06:43:44;;;;;;;;;21.00;18.75;;;;;25.35;52.16;101304.00;4916774;28;46240;-64
2022/07/20 06:46:10;;;;;;;;;28.00;23.00;;;;;25.30;52.44;101314.16;4918790;28;45405;-64
2022/07/20 06:48:36;;;;;;;;;25.50;19.50;;;;;25.10;54.18;101292.75;4917889;28;45506;-63
2022/07/20 06:51:02;;;;;;;;;21.75;18.75;;;;;24.83;54.20;101232.34;4918947;28;45521;-64
2022/07/20 06:53:27;;;;;;;;;28.00;22.75;;;;;25.24;53.27;101297.84;4918149;28;46282;-65
2022/07/20 06:55:52;;;;;;;;;23.00;16.67;;;;;25.11;53.23;101290.00;4918587;28;45545;-64
2022/07/20 06:58:18;;;;;;;;;24.50;18.50;;;;;24.95;53.48;101275.78;4918705;28;45448;-64
2022/07/20 07:00:43;;;;;;;;;20.50;19.00;;;;;24.96;53.91;101276.69;4918162;28;45477;-64
2022/07/20 07:03:08;;;;;;;;;19.33;18.00;;;;;24.91;53.21;101265.84;4917937;28;46353;-65
2022/07/20 07:05:34;;;;;;;;;26.00;21.75;;;;;24.80;53.56;101265.25;4917778;28;45729;-64
2022/07/20 07:08:00;;;;;;;;;18.67;18.00;;;;;24.80;53.90;101268.00;4918621;28;45636;-63
2022/07/20 07:10:25;;;;;;;;;23.00;18.00;;;;;24.73;55.01;101275.44;4918380;28;45451;-64
2022/07/20 07:12:51;;;;;;;;;20.67;20.67;;;;;24.57;56.04;101268.53;4917963;28;46129;-64
2022/07/20 07:15:17;;;;;;;;;22.25;18.00;;;;;24.60;55.91;101276.63;4917906;28;45423;-63
2022/07/20 07:17:43;;;;;;;;;23.00;20.75;;;;;24.53;56.21;101262.19;4930271;28;45540;-64
2022/07/20 07:20:09;;;;;;;;;24.25;20.50;;;;;24.50;56.96;101273.22;4918234;28;45518;-63
2022/07/20 07:22:34;;;;;;;;;16.50;14.75;;;;;24.49;56.08;101295.09;4917649;28;46519;-63
2022/07/20 07:25:00;;;;;;;;;27.25;24.25;;;;;24.33;56.58;101284.50;4917588;28;45395;-63
2022/07/20 07:27:25;;;;;;;;;23.50;20.25;;;;;24.35;57.99;101288.09;4917844;28;45336;-64
2022/07/20 07:29:51;;;;;;;;;22.25;19.25;;;;;24.35;56.74;101260.78;4917935;28;44774;-64
2022/07/20 07:32:16;;;;;;;;;17.75;16.25;;;;;24.32;57.36;101247.22;4917541;28;45901;-64
2022/07/20 07:34:41;;;;;;;;;22.00;21.00;;;;;24.25;57.53;101254.66;4917370;28;45402;-64
2022/07/20 07:37:07;;;;;;;;;30.50;23.75;;;;;24.22;58.50;101290.22;4918015;28;45237;-66
2022/07/20 07:39:32;;;;;;;;;25.50;22.25;;;;;24.27;58.56;101293.75;4917862;28;45374;-65
2022/07/20 07:41:57;;;;;;;;;21.75;21.75;;;;;23.98;57.95;101201.56;4917393;28;45270;-63
2022/07/20 07:44:23;;;;;;;;;22.50;20.75;;;;;24.44;57.31;101295.19;4917771;28;45527;-64
2022/07/20 07:46:48;;;;;;;;;23.50;20.25;;;;;24.37;57.23;101315.38;4917439;28;45283;-63
2022/07/20 07:49:14;;;;;;;;;15.75;14.75;;;;;24.16;57.52;101297.63;4917324;28;45756;-66
2022/07/20 07:51:39;;;;;;;;;25.25;20.25;;;;;24.27;57.04;101310.13;4917122;28;45571;-64
2022/07/20 07:54:05;;;;;;;;;20.33;17.67;;;;;24.29;57.17;101302.78;4917936;28;45526;-67
2022/07/20 07:56:31;;;;;;;;;24.25;23.00;;;;;24.32;57.18;101320.03;4917459;28;45371;-66
2022/07/20 07:58:56;;;;;;;;;27.25;20.25;;;;;24.47;57.03;101330.66;4917367;28;45497;-63
2022/07/20 08:01:21;;;;;;;;;27.50;23.75;;;;;24.45;55.91;101314.28;4916569;28;45471;-64
2022/07/20 08:03:47;;;;;;;;;17.00;10.75;;;;;24.58;56.42;101344.06;4917308;28;45382;-64
2022/07/20 08:06:12;;;;;;;;;24.75;18.50;;;;;24.50;56.28;101329.66;4900122;28;45352;-64
2022/07/20 08:08:38;;;;;;;;;28.25;24.50;;;;;24.51;56.98;101339.66;4917891;28;45563;-64
2022/07/20 08:11:04;;;;;;;;;21.00;21.00;;;;;24.51;57.02;101331.47;4916985;28;46069;-65
2022/07/20 08:13:29;;;;;;;;;23.75;22.00;;;;;24.36;56.40;101305.41;4917464;28;45710;-63
2022/07/20 08:15:55;;;;;;;;;26.00;22.75;;;;;24.60;56.62;101344.94;4917302;28;45545;-64
2022/07/20 08:18:20;;;;;;;;;25.00;21.50;;;;;24.67;56.59;101337.53;4930652;28;45346;-64
2022/07/20 08:20:46;;;;;;;;;29.75;24.25;;;;;24.75;56.60;101328.22;4917407;28;46355;-64
2022/07/20 08:23:12;;;;;;;;;24.75;23.25;;;;;24.78;57.40;101336.34;4917022;28;45273;-65
2022/07/20 08:25:37;;;;;;;;;28.25;23.00;;;;;24.86;56.12;101357.13;4916918;28;45586;-63
2022/07/20 08:28:29;;;;;;;;;24.00;21.50;;;;;24.81;55.20;101357.22;4916627;28;45418;-64
2022/07/20 08:30:54;;;;;;;;;24.25;21.75;;;;;24.64;55.29;101331.19;4914042;28;46283;-66
2022/07/20 08:33:20;;;;;;;;;19.67;19.33;;;;;24.77;55.09;101339.13;4915933;28;45446;-63
2022/07/20 08:35:45;;;;;;;;;24.75;23.00;;;;;24.77;54.91;101339.13;4916530;28;45395;-64
2022/07/20 08:38:11;;;;;;;;;24.50;23.00;;;;;24.76;55.42;101335.47;4929790;28;45542;-64
2022/07/20 08:40:38;;;;;;;;;32.25;18.75;;;;;24.79;55.28;101353.63;4916475;28;45935;-65
2022/07/20 08:43:04;;;;;;;;;30.50;26.75;;;;;24.77;55.12;101359.13;4916268;28;45275;-63
2022/07/20 08:45:31;;;;;;;;;24.25;23.75;;;;;24.74;54.94;101340.06;4916373;28;45481;-64
2022/07/20 08:47:58;;;;;;;;;22.50;22.00;;;;;24.42;55.15;101287.03;4917044;28;45498;-64
2022/07/20 08:50:29;;;;;;;;;22.25;20.25;;;;;24.78;54.79;101355.47;4916425;28;45982;-63
2022/07/20 08:52:56;;;;;;;;;32.50;27.25;;;;;24.80;54.74;101360.91;4916752;28;45294;-65
2022/07/20 08:55:22;;;;;;;;;26.00;23.50;;;;;24.75;54.41;101363.75;4916329;28;45447;-64
2022/07/20 08:57:48;;;;;;;;;23.75;22.25;;;;;24.76;55.06;101359.16;4916902;28;45454;-65
2022/07/20 09:00:15;;;;;;;;;22.00;20.75;;;;;24.74;55.19;101356.47;4916315;28;45490;-64
2022/07/20 09:03:03;;;;;;;;;21.00;18.33;;;;;24.77;54.80;101353.66;4916115;28;45377;-65
2022/07/20 09:05:31;;;;;;;;;23.50;19.25;;;;;24.81;53.83;101369.06;4916299;28;45459;-63
2022/07/20 09:07:57;;;;;;;;;20.33;16.00;;;;;24.83;53.08;101356.25;4916701;28;45512;-65
2022/07/20 09:10:28;;;;;;;;;24.25;19.50;;;;;24.80;52.81;101348.13;4916675;28;46595;-65
2022/07/20 09:13:03;;;;;;;;;23.75;20.50;;;;;24.95;53.92;101362.38;4916224;28;45370;-64
2022/07/20 09:15:37;;;;;;;;;21.75;16.00;;;;;25.01;53.18;101354.00;4910665;28;45256;-64
2022/07/20 09:18:19;;;;;;;;;15.67;15.67;;;;;25.05;52.03;101349.41;4929634;28;45590;-64
2022/07/20 09:20:49;;;;;;;;;21.00;15.33;;;;;25.12;51.75;101324.56;4915944;28;45547;-64
2022/07/20 09:23:25;;;;;;;;;16.33;16.33;;;;;25.29;51.61;101334.22;4916216;28;45603;-65
2022/07/20 09:25:59;;;;;;;;;14.00;12.67;;;;;25.41;51.66;101339.41;4915709;28;45319;-64
2022/07/20 09:28:40;;;;;;;;;17.33;17.00;;;;;25.04;51.14;101258.25;4916162;28;45502;-63
2022/07/20 09:31:21;;;;;;;;;18.00;17.25;;;;;25.49;51.10;101334.63;4915660;28;46367;-64
2022/07/20 09:34:06;;;;;;;;;19.25;19.25;;;;;25.57;50.90;101342.59;4915310;28;46163;-65
2022/07/20 09:36:37;;;;;;;;;21.00;17.33;;;;;25.55;50.78;101348.13;4915922;28;45755;-64
2022/07/20 09:39:06;;;;;;;;;19.33;15.67;;;;;25.56;50.14;101343.56;4916385;28;45469;-64
2022/07/20 09:41:33;;;;;;;;;13.33;9.00;;;;;25.55;49.35;101342.66;4915374;28;46003;-64
2022/07/20 09:44:01;;;;;;;;;14.33;12.67;;;;;25.49;50.28;101339.16;4914677;28;45351;-64
2022/07/20 09:46:30;;;;;;;;;13.67;12.00;;;;;25.51;49.56;101360.09;4915290;28;45573;-64
2022/07/20 09:49:03;;;;;;;;;9.67;9.67;;;;;25.42;50.02;101351.22;4915558;28;45281;-62
2022/07/20 09:51:35;;;;;;;;;16.67;14.67;;;;;25.39;50.61;101360.41;4915059;28;45371;-64
2022/07/20 09:54:04;;;;;;;;;17.00;15.67;;;;;25.37;51.47;101360.44;4915421;28;46779;-63
2022/07/20 09:56:30;;;;;;;;;12.33;12.00;;;;;25.37;50.82;101363.16;4915295;28;45480;-65
2022/07/20 09:58:58;;;;;;;;;15.67;13.00;;;;;25.27;50.70;101361.63;4915497;28;45461;-63
2022/07/20 10:01:27;;;;;;;;;12.33;8.67;;;;;25.28;50.70;101374.38;4915124;28;45494;-66
2022/07/20 10:03:55;;;;;;;;;11.67;10.67;;;;;25.20;50.09;101376.34;4914989;28;45596;-63
2022/07/20 10:06:22;;;;;;;;;7.33;7.33;;;;;25.15;51.10;101378.31;4915264;28;45488;-64
2022/07/20 10:08:49;;;;;;;;;9.33;7.67;;;;;25.14;51.04;101379.22;4915360;28;45364;-65
2022/07/20 10:11:16;;;;;;;;;7.00;7.00;;;;;25.12;51.36;101382.00;4914675;28;46016;-66
2022/07/20 10:13:43;;;;;;;;;9.67;8.33;;;;;25.07;51.78;101378.47;4915213;28;45391;-64
2022/07/20 10:16:23;;;;;;;;;15.67;12.67;;;;;25.08;52.02;101372.09;4915359;28;45355;-64
2022/07/20 10:18:49;;;;;;;;;12.67;9.33;;;;;24.93;52.29;101337.81;4915558;28;45290;-65
2022/07/20 10:21:35;;;;;;;;;11.00;9.00;;;;;25.16;51.65;101366.41;4915550;28;45918;-66
2022/07/20 10:24:12;;;;;;;;;11.67;8.00;;;;;25.19;50.97;101380.94;4915448;28;45485;-66
2022/07/20 10:26:38;;;;;;;;;7.00;7.00;;;;;25.17;50.57;101377.31;4915129;28;45359;-65
2022/07/20 10:29:03;;;;;;;;;7.00;7.00;;;;;25.24;50.66;101393.59;4915210;28;45622;-65
2022/07/20 10:31:49;;;;;;;;;12.67;9.67;;;;;25.25;50.90;101378.97;4914711;28;45355;-64
2022/07/20 10:34:34;;;;;;;;;8.00;8.00;;;;;25.33;50.68;101383.34;4906805;28;45291;-65
2022/07/20 10:37:22;;;;;;;;;10.33;7.33;;;;;25.39;50.27;101379.53;4916964;28;45359;-65
2022/07/20 10:39:48;;;;;;;;;18.33;14.00;;;;;25.46;50.61;101372.06;4915225;28;45580;-64
2022/07/20 10:42:22;;;;;;;;;13.00;11.33;;;;;25.50;49.99;101360.13;4914660;28;46523;-66
2022/07/20 10:44:48;;;;;;;;;10.67;10.00;;;;;25.43;50.20;101344.84;4914897;28;45442;-66
2022/07/20 10:47:40;;;;;;;;;12.33;9.67;;;;;25.51;50.03;101368.31;4914937;28;45534;-64
2022/07/20 10:50:06;;;;;;;;;8.67;8.33;;;;;25.43;50.34;101362.13;4915596;28;45431;-66
2022/07/20 10:52:33;;;;;;;;;12.33;8.67;;;;;25.31;50.72;101371.56;4914719;28;45461;-64
2022/07/20 10:54:59;;;;;;;;;13.00;10.33;;;;;25.34;50.41;101371.47;4915737;28;45321;-65
2022/07/20 10:57:25;;;;;;;;;10.67;10.67;;;;;25.08;50.37;101320.13;4917585;28;45398;-64
2022/07/20 11:00:11;;;;;;;;;16.00;12.67;;;;;25.28;50.75;101371.63;4918758;28;45520;-65
2022/07/20 11:02:37;;;;;;;;;16.33;15.00;;;;;25.27;51.94;101385.34;4918118;28;46479;-67
2022/07/20 11:05:04;;;;;;;;;9.00;7.00;;;;;25.26;51.14;101391.69;4918145;28;45389;-66
2022/07/20 11:07:34;;;;;;;;;11.00;9.67;;;;;25.23;51.97;101408.19;4918997;28;45503;-65
2022/07/20 11:10:17;;;;;;;;;11.00;9.67;;;;;25.11;52.03;101385.69;4918278;28;45417;-65